sensor_id;sensor_type;location;lat;lon;timestamp;pressure;altitude;pressure_sealevel;temperature;humidity
6942;BME280;3510;43.200;27.920;2023-04-06T00:25:22;100717.25;;;12.97;43.46
6942;BME280;3510;43.200;27.920;2023-04-06T00:27:49;100731.69;;;13.10;43.45
6942;BME280;3510;43.200;27.920;2023-04-06T00:30:16;100713.63;;;12.94;44.20
6942;BME280;3510;43.200;27.920;2023-04-06T00:32:42;100713.28;;;12.66;44.79
6942;BME280;3510;43.200;27.920;2023-04-06T00:35:09;100704.53;;;12.84;44.27
6942;BME280;3510;43.200;27.920;2023-04-06T00:37:35;100711.22;;;12.83;44.55
6942;BME280;3510;43.200;27.920;2023-04-06T00:40:02;100704.53;;;13.07;44.40
6942;BME280;3510;43.200;27.920;2023-04-06T00:42:30;100694.09;;;13.03;44.31
6942;BME280;3510;43.200;27.920;2023-04-06T00:44:57;100700.66;;;12.77;44.59
6942;BME280;3510;43.200;27.920;2023-04-06T00:47:24;100706.06;;;12.94;44.43
6942;BME280;3510;43.200;27.920;2023-04-06T00:49:51;100706.97;;;13.18;43.62
6942;BME280;3510;43.200;27.920;2023-04-06T00:52:18;100686.53;;;12.79;44.97
6942;BME280;3510;43.200;27.920;2023-04-06T00:54:45;100695.97;;;13.17;43.46
6942;BME280;3510;43.200;27.920;2023-04-06T00:57:12;100694.88;;;13.02;43.62
6942;BME280;3510;43.200;27.920;2023-04-06T00:59:40;100703.53;;;12.82;43.78
6942;BME280;3510;43.200;27.920;2023-04-06T01:02:07;100695.19;;;12.38;44.46
6942;BME280;3510;43.200;27.920;2023-04-06T01:04:35;100694.34;;;12.49;44.25
6942;BME280;3510;43.200;27.920;2023-04-06T01:07:01;100692.56;;;12.93;43.25
6942;BME280;3510;43.200;27.920;2023-04-06T01:09:28;100694.94;;;12.34;43.93
6942;BME280;3510;43.200;27.920;2023-04-06T01:11:55;100695.31;;;12.39;43.51
6942;BME280;3510;43.200;27.920;2023-04-06T01:14:22;100691.38;;;12.43;43.20
6942;BME280;3510;43.200;27.920;2023-04-06T01:16:50;100693.09;;;13.01;41.97
6942;BME280;3510;43.200;27.920;2023-04-06T01:19:16;100705.50;;;12.41;42.39
6942;BME280;3510;43.200;27.920;2023-04-06T01:21:43;100689.53;;;12.64;42.57
6942;BME280;3510;43.200;27.920;2023-04-06T01:24:10;100689.91;;;12.34;42.47
6942;BME280;3510;43.200;27.920;2023-04-06T01:26:38;100676.72;;;12.27;43.09
6942;BME280;3510;43.200;27.920;2023-04-06T01:29:04;100679.31;;;12.50;42.41
6942;BME280;3510;43.200;27.920;2023-04-06T01:31:31;100681.47;;;12.79;41.86
6942;BME280;3510;43.200;27.920;2023-04-06T01:33:58;100676.78;;;12.39;42.46
6942;BME280;3510;43.200;27.920;2023-04-06T01:36:25;100679.34;;;12.62;42.23
6942;BME280;3510;43.200;27.920;2023-04-06T01:38:51;100676.19;;;12.76;41.84
6942;BME280;3510;43.200;27.920;2023-04-06T01:41:19;100674.78;;;12.92;41.04
6942;BME280;3510;43.200;27.920;2023-04-06T01:43:46;100666.50;;;12.59;41.98
6942;BME280;3510;43.200;27.920;2023-04-06T01:46:13;100675.66;;;12.92;41.23
6942;BME280;3510;43.200;27.920;2023-04-06T01:48:40;100673.72;;;12.54;41.83
6942;BME280;3510;43.200;27.920;2023-04-06T01:51:06;100678.16;;;13.16;41.06
6942;BME280;3510;43.200;27.920;2023-04-06T01:53:32;100678.69;;;12.65;41.85
6942;BME280;3510;43.200;27.920;2023-04-06T01:55:59;100672.34;;;12.70;41.79
6942;BME280;3510;43.200;27.920;2023-04-06T02:01:36;100677.16;;;12.78;41.60
6942;BME280;3510;43.200;27.920;2023-04-06T02:04:03;100675.97;;;12.85;41.09
6942;BME280;3510;43.200;27.920;2023-04-06T02:06:30;100683.75;;;12.65;41.69
6942;BME280;3510;43.200;27.920;2023-04-06T02:08:57;100672.69;;;13.21;40.44
6942;BME280;3510;43.200;27.920;2023-04-06T02:11:23;100674.78;;;13.15;40.69
6942;BME280;3510;43.200;27.920;2023-04-06T02:13:50;100658.06;;;12.70;41.82
6942;BME280;3510;43.200;27.920;2023-04-06T02:16:16;100671.00;;;12.75;41.66
6942;BME280;3510;43.200;27.920;2023-04-06T02:18:45;100656.91;;;13.24;40.63
6942;BME280;3510;43.200;27.920;2023-04-06T02:21:11;100666.41;;;12.24;42.57
6942;BME280;3510;43.200;27.920;2023-04-06T02:23:38;100662.34;;;12.26;42.92
6942;BME280;3510;43.200;27.920;2023-04-06T02:26:04;100664.84;;;12.59;42.01
6942;BME280;3510;43.200;27.920;2023-04-06T02:28:31;100662.25;;;12.24;42.80
6942;BME280;3510;43.200;27.920;2023-04-06T02:30:57;100656.25;;;12.46;42.42
6942;BME280;3510;43.200;27.920;2023-04-06T02:33:25;100660.94;;;12.29;42.31
6942;BME280;3510;43.200;27.920;2023-04-06T02:35:52;100662.34;;;12.26;42.63
6942;BME280;3510;43.200;27.920;2023-04-06T02:38:19;100660.09;;;12.07;42.92
6942;BME280;3510;43.200;27.920;2023-04-06T02:40:45;100660.41;;;12.33;42.75
6942;BME280;3510;43.200;27.920;2023-04-06T02:43:12;100667.47;;;12.16;42.52
6942;BME280;3510;43.200;27.920;2023-04-06T02:45:38;100655.66;;;11.82;43.55
6942;BME280;3510;43.200;27.920;2023-04-06T02:48:05;100650.16;;;11.86;43.22
6942;BME280;3510;43.200;27.920;2023-04-06T02:50:31;100658.56;;;12.43;42.77
6942;BME280;3510;43.200;27.920;2023-04-06T02:52:59;100661.13;;;12.66;42.57
6942;BME280;3510;43.200;27.920;2023-04-06T02:55:25;100662.88;;;12.79;41.79
6942;BME280;3510;43.200;27.920;2023-04-06T02:57:52;100667.63;;;12.74;41.65
6942;BME280;3510;43.200;27.920;2023-04-06T03:00:19;100662.88;;;12.67;41.76
6942;BME280;3510;43.200;27.920;2023-04-06T03:02:46;100665.97;;;12.29;42.40
6942;BME280;3510;43.200;27.920;2023-04-06T03:05:12;100666.75;;;12.28;42.42
6942;BME280;3510;43.200;27.920;2023-04-06T03:07:39;100660.13;;;11.75;44.31
6942;BME280;3510;43.200;27.920;2023-04-06T03:10:07;100656.25;;;12.46;42.81
6942;BME280;3510;43.200;27.920;2023-04-06T03:12:34;100663.66;;;12.78;42.35
6942;BME280;3510;43.200;27.920;2023-04-06T03:15:01;100661.53;;;12.49;42.46
6942;BME280;3510;43.200;27.920;2023-04-06T03:17:27;100655.41;;;12.23;42.67
6942;BME280;3510;43.200;27.920;2023-04-06T03:19:54;100667.41;;;12.04;43.31
6942;BME280;3510;43.200;27.920;2023-04-06T03:22:20;100667.16;;;12.23;43.15
6942;BME280;3510;43.200;27.920;2023-04-06T03:24:47;100659.56;;;12.56;42.87
6942;BME280;3510;43.200;27.920;2023-04-06T03:27:15;100660.38;;;12.00;43.45
6942;BME280;3510;43.200;27.920;2023-04-06T03:29:41;100645.22;;;11.78;43.45
6942;BME280;3510;43.200;27.920;2023-04-06T03:32:08;100664.16;;;11.51;43.66
6942;BME280;3510;43.200;27.920;2023-04-06T03:34:35;100668.16;;;11.59;43.84
6942;BME280;3510;43.200;27.920;2023-04-06T03:37:02;100656.59;;;11.51;44.12
6942;BME280;3510;43.200;27.920;2023-04-06T03:39:29;100661.53;;;12.15;43.03
6942;BME280;3510;43.200;27.920;2023-04-06T03:41:55;100665.63;;;11.91;43.61
6942;BME280;3510;43.200;27.920;2023-04-06T03:44:23;100660.25;;;11.86;43.37
6942;BME280;3510;43.200;27.920;2023-04-06T03:46:50;100658.25;;;12.16;42.87
6942;BME280;3510;43.200;27.920;2023-04-06T03:49:16;100670.09;;;12.39;42.87
6942;BME280;3510;43.200;27.920;2023-04-06T03:51:43;100667.47;;;11.94;43.46
6942;BME280;3510;43.200;27.920;2023-04-06T03:54:09;100665.06;;;12.63;42.50
6942;BME280;3510;43.200;27.920;2023-04-06T03:56:36;100666.41;;;12.24;43.08
6942;BME280;3510;43.200;27.920;2023-04-06T03:59:03;100667.97;;;12.33;43.19
6942;BME280;3510;43.200;27.920;2023-04-06T04:01:30;100673.53;;;11.96;43.10
6942;BME280;3510;43.200;27.920;2023-04-06T04:03:57;100670.66;;;12.13;43.06
6942;BME280;3510;43.200;27.920;2023-04-06T04:06:23;100668.16;;;12.25;42.98
6942;BME280;3510;43.200;27.920;2023-04-06T04:08:50;100666.97;;;12.65;42.26
6942;BME280;3510;43.200;27.920;2023-04-06T04:11:17;100663.50;;;11.85;43.59
6942;BME280;3510;43.200;27.920;2023-04-06T04:13:43;100669.91;;;12.26;42.59
6942;BME280;3510;43.200;27.920;2023-04-06T04:16:10;100671.88;;;12.18;42.98
6942;BME280;3510;43.200;27.920;2023-04-06T04:18:38;100673.63;;;12.19;42.37
6942;BME280;3510;43.200;27.920;2023-04-06T04:21:04;100680.84;;;12.15;43.01
6942;BME280;3510;43.200;27.920;2023-04-06T04:23:31;100684.75;;;12.33;42.51
6942;BME280;3510;43.200;27.920;2023-04-06T04:25:57;100690.38;;;12.41;42.10
6942;BME280;3510;43.200;27.920;2023-04-06T04:28:24;100671.34;;;12.00;43.05
6942;BME280;3510;43.200;27.920;2023-04-06T04:30:50;100682.72;;;12.17;42.73
6942;BME280;3510;43.200;27.920;2023-04-06T04:33:17;100675.91;;;12.16;43.02
6942;BME280;3510;43.200;27.920;2023-04-06T04:35:44;100665.13;;;12.07;43.26
6942;BME280;3510;43.200;27.920;2023-04-06T04:38:11;100673.38;;;12.16;42.61
6942;BME280;3510;43.200;27.920;2023-04-06T04:40:37;100671.91;;;12.30;42.30
6942;BME280;3510;43.200;27.920;2023-04-06T04:43:04;100676.50;;;12.69;41.53
6942;BME280;3510;43.200;27.920;2023-04-06T04:45:31;100678.34;;;12.72;41.63
6942;BME280;3510;43.200;27.920;2023-04-06T04:47:57;100675.66;;;12.35;42.11
6942;BME280;3510;43.200;27.920;2023-04-06T04:50:24;100671.06;;;12.53;42.28
6942;BME280;3510;43.200;27.920;2023-04-06T04:52:52;100675.09;;;12.27;42.69
6942;BME280;3510;43.200;27.920;2023-04-06T04:55:19;100679.88;;;12.13;42.77
6942;BME280;3510;43.200;27.920;2023-04-06T04:57:45;100668.38;;;11.94;42.69
6942;BME280;3510;43.200;27.920;2023-04-06T05:00:12;100680.16;;;11.83;42.56
6942;BME280;3510;43.200;27.920;2023-04-06T05:02:39;100683.19;;;12.01;42.56
6942;BME280;3510;43.200;27.920;2023-04-06T05:05:05;100677.94;;;12.20;42.26
6942;BME280;3510;43.200;27.920;2023-04-06T05:07:32;100685.78;;;11.91;42.89
6942;BME280;3510;43.200;27.920;2023-04-06T05:10:00;100679.19;;;12.49;41.87
6942;BME280;3510;43.200;27.920;2023-04-06T05:12:26;100680.91;;;12.04;42.21
6942;BME280;3510;43.200;27.920;2023-04-06T05:14:53;100682.59;;;11.94;42.14
6942;BME280;3510;43.200;27.920;2023-04-06T05:17:20;100679.59;;;12.31;42.11
6942;BME280;3510;43.200;27.920;2023-04-06T05:19:46;100677.94;;;12.20;42.02
6942;BME280;3510;43.200;27.920;2023-04-06T05:22:13;100684.84;;;12.34;41.68
6942;BME280;3510;43.200;27.920;2023-04-06T05:24:41;100665.69;;;12.48;41.72
6942;BME280;3510;43.200;27.920;2023-04-06T05:27:22;100671.84;;;12.52;41.55
6942;BME280;3510;43.200;27.920;2023-04-06T05:29:49;100674.84;;;12.58;41.55
6942;BME280;3510;43.200;27.920;2023-04-06T05:32:16;100680.81;;;13.17;40.35
6942;BME280;3510;43.200;27.920;2023-04-06T05:34:47;100675.00;;;12.38;41.78
6942;BME280;3510;43.200;27.920;2023-04-06T05:37:13;100666.41;;;12.57;41.42
6942;BME280;3510;43.200;27.920;2023-04-06T05:39:40;100668.13;;;12.47;41.38
6942;BME280;3510;43.200;27.920;2023-04-06T05:42:06;100677.09;;;12.31;41.41
6942;BME280;3510;43.200;27.920;2023-04-06T05:44:34;100674.13;;;12.37;41.37
6942;BME280;3510;43.200;27.920;2023-04-06T05:47:03;100666.50;;;12.14;41.50
6942;BME280;3510;43.200;27.920;2023-04-06T05:49:29;100663.19;;;12.60;41.19
6942;BME280;3510;43.200;27.920;2023-04-06T05:51:55;100664.03;;;12.37;41.48
6942;BME280;3510;43.200;27.920;2023-04-06T05:54:22;100664.78;;;12.24;41.70
6942;BME280;3510;43.200;27.920;2023-04-06T05:56:48;100660.69;;;12.26;41.88
6942;BME280;3510;43.200;27.920;2023-04-06T05:59:15;100654.00;;;13.19;40.21
6942;BME280;3510;43.200;27.920;2023-04-06T06:01:43;100660.13;;;12.64;41.44
6942;BME280;3510;43.200;27.920;2023-04-06T06:04:09;100646.63;;;12.75;40.65
6942;BME280;3510;43.200;27.920;2023-04-06T06:06:36;100653.78;;;12.69;41.02
6942;BME280;3510;43.200;27.920;2023-04-06T06:09:04;100657.75;;;13.13;40.23
6942;BME280;3510;43.200;27.920;2023-04-06T06:11:31;100662.78;;;12.89;41.04
6942;BME280;3510;43.200;27.920;2023-04-06T06:13:58;100658.97;;;13.18;40.19
6942;BME280;3510;43.200;27.920;2023-04-06T06:16:24;100661.22;;;12.68;40.68
6942;BME280;3510;43.200;27.920;2023-04-06T06:18:52;100647.34;;;12.27;41.29
6942;BME280;3510;43.200;27.920;2023-04-06T06:21:19;100656.41;;;12.59;40.72
6942;BME280;3510;43.200;27.920;2023-04-06T06:23:45;100648.50;;;12.90;39.93
6942;BME280;3510;43.200;27.920;2023-04-06T06:26:13;100650.25;;;12.79;40.27
6942;BME280;3510;43.200;27.920;2023-04-06T06:28:39;100656.13;;;13.13;39.96
6942;BME280;3510;43.200;27.920;2023-04-06T06:31:06;100661.59;;;12.96;39.79
6942;BME280;3510;43.200;27.920;2023-04-06T06:33:46;100656.88;;;12.89;39.89
6942;BME280;3510;43.200;27.920;2023-04-06T07:02:44;100655.19;;;13.96;38.74
6942;BME280;3510;43.200;27.920;2023-04-06T07:05:11;100654.38;;;13.36;39.68
6942;BME280;3510;43.200;27.920;2023-04-06T07:07:51;100647.16;;;13.65;38.28
6942;BME280;3510;43.200;27.920;2023-04-06T07:10:32;100652.34;;;13.92;38.11
6942;BME280;3510;43.200;27.920;2023-04-06T07:13:13;100628.53;;;13.40;39.08
6942;BME280;3510;43.200;27.920;2023-04-06T07:15:53;100651.09;;;13.73;38.91
6942;BME280;3510;43.200;27.920;2023-04-06T07:36:47;100622.38;;;14.74;37.26
6942;BME280;3510;43.200;27.920;2023-04-06T07:39:14;100645.13;;;14.48;37.70
6942;BME280;3510;43.200;27.920;2023-04-06T07:41:44;100647.25;;;15.07;36.95
6942;BME280;3510;43.200;27.920;2023-04-06T07:44:25;100647.91;;;15.44;36.17
6942;BME280;3510;43.200;27.920;2023-04-06T07:46:52;100650.84;;;14.97;36.70
6942;BME280;3510;43.200;27.920;2023-04-06T07:49:33;100607.88;;;14.34;37.23
6942;BME280;3510;43.200;27.920;2023-04-06T07:58:53;100607.38;;;15.04;36.62
6942;BME280;3510;43.200;27.920;2023-04-06T08:01:22;100645.97;;;15.27;36.97
6942;BME280;3510;43.200;27.920;2023-04-06T08:03:50;100645.63;;;15.90;35.36
6942;BME280;3510;43.200;27.920;2023-04-06T08:06:18;100649.50;;;15.98;35.20
6942;BME280;3510;43.200;27.920;2023-04-06T08:08:44;100590.75;;;15.77;35.13
6942;BME280;3510;43.200;27.920;2023-04-06T08:11:12;100588.28;;;16.21;34.50
6942;BME280;3510;43.200;27.920;2023-04-06T08:13:40;100631.69;;;16.11;35.10
6942;BME280;3510;43.200;27.920;2023-04-06T08:16:09;100642.25;;;16.91;33.84
6942;BME280;3510;43.200;27.920;2023-04-06T08:18:37;100619.41;;;17.08;33.32
6942;BME280;3510;43.200;27.920;2023-04-06T08:21:04;100637.84;;;16.59;33.62
6942;BME280;3510;43.200;27.920;2023-04-06T08:23:38;100631.81;;;16.57;34.00
6942;BME280;3510;43.200;27.920;2023-04-06T08:26:05;100634.66;;;16.77;33.79
6942;BME280;3510;43.200;27.920;2023-04-06T08:28:46;100559.97;;;16.45;33.55
6942;BME280;3510;43.200;27.920;2023-04-06T08:31:17;100631.72;;;17.79;32.30
6942;BME280;3510;43.200;27.920;2023-04-06T08:33:45;100577.44;;;17.47;31.98
6942;BME280;3510;43.200;27.920;2023-04-06T08:36:14;100630.88;;;17.47;32.74
6942;BME280;3510;43.200;27.920;2023-04-06T08:38:42;100609.84;;;17.18;32.70
6942;BME280;3510;43.200;27.920;2023-04-06T08:41:10;100635.78;;;16.82;33.41
6942;BME280;3510;43.200;27.920;2023-04-06T08:43:42;100608.94;;;17.65;32.25
6942;BME280;3510;43.200;27.920;2023-04-06T08:46:10;100552.34;;;16.75;33.08
6942;BME280;3510;43.200;27.920;2023-04-06T08:48:41;100590.47;;;16.75;33.27
6942;BME280;3510;43.200;27.920;2023-04-06T08:51:08;100566.28;;;16.81;33.03
6942;BME280;3510;43.200;27.920;2023-04-06T08:53:35;100583.81;;;17.08;32.27
6942;BME280;3510;43.200;27.920;2023-04-06T08:56:03;100626.66;;;17.64;32.18
6942;BME280;3510;43.200;27.920;2023-04-06T08:58:34;100619.66;;;17.60;32.32
6942;BME280;3510;43.200;27.920;2023-04-06T09:01:02;100622.28;;;17.76;31.60
6942;BME280;3510;43.200;27.920;2023-04-06T09:03:35;100562.63;;;17.07;32.37
6942;BME280;3510;43.200;27.920;2023-04-06T09:31:30;100624.59;;;17.57;32.64
6942;BME280;3510;43.200;27.920;2023-04-06T09:33:58;100635.84;;;17.29;32.71
6942;BME280;3510;43.200;27.920;2023-04-06T09:36:39;100622.53;;;17.02;33.40
6942;BME280;3510;43.200;27.920;2023-04-06T09:39:21;100570.50;;;16.36;33.97
6942;BME280;3510;43.200;27.920;2023-04-06T09:41:51;100631.09;;;17.35;33.16
6942;BME280;3510;43.200;27.920;2023-04-06T09:44:32;100626.03;;;17.35;32.61
6942;BME280;3510;43.200;27.920;2023-04-06T09:47:00;100623.03;;;17.59;32.44
6942;BME280;3510;43.200;27.920;2023-04-06T09:49:30;100587.75;;;17.17;32.91
6942;BME280;3510;43.200;27.920;2023-04-06T09:52:12;100620.47;;;17.11;32.68
6942;BME280;3510;43.200;27.920;2023-04-06T09:54:41;100502.09;;;16.54;32.83
6942;BME280;3510;43.200;27.920;2023-04-06T09:57:25;100613.66;;;17.27;32.84
6942;BME280;3510;43.200;27.920;2023-04-06T09:59:56;100522.66;;;16.59;33.21
6942;BME280;3510;43.200;27.920;2023-04-06T10:33:56;100610.06;;;17.71;32.72
6942;BME280;3510;43.200;27.920;2023-04-06T10:36:24;100616.53;;;17.97;32.21
6942;BME280;3510;43.200;27.920;2023-04-06T10:38:55;100612.00;;;18.59;31.31
6942;BME280;3510;43.200;27.920;2023-04-06T10:41:23;100622.63;;;18.69;31.04
6942;BME280;3510;43.200;27.920;2023-04-06T10:43:56;100609.78;;;19.39;29.98
6942;BME280;3510;43.200;27.920;2023-04-06T10:46:25;100613.34;;;18.87;31.28
6942;BME280;3510;43.200;27.920;2023-04-06T10:48:52;100594.28;;;19.34;30.50
6942;BME280;3510;43.200;27.920;2023-04-06T10:51:24;100616.78;;;19.05;30.42
6942;BME280;3510;43.200;27.920;2023-04-06T10:53:54;100566.00;;;19.29;29.94
6942;BME280;3510;43.200;27.920;2023-04-06T10:56:22;100609.53;;;19.70;29.77
6942;BME280;3510;43.200;27.920;2023-04-06T10:58:52;100613.50;;;20.23;28.94
6942;BME280;3510;43.200;27.920;2023-04-06T11:01:23;100612.56;;;19.80;29.20
6942;BME280;3510;43.200;27.920;2023-04-06T11:03:53;100599.56;;;19.01;30.44
6942;BME280;3510;43.200;27.920;2023-04-06T11:06:23;100611.75;;;18.71;30.84
6942;BME280;3510;43.200;27.920;2023-04-06T11:08:51;100552.97;;;17.65;31.72
6942;BME280;3510;43.200;27.920;2023-04-06T11:11:20;100556.88;;;18.44;30.89
6942;BME280;3510;43.200;27.920;2023-04-06T11:13:49;100608.47;;;18.22;31.63
6942;BME280;3510;43.200;27.920;2023-04-06T11:16:17;100530.13;;;17.67;31.24
6942;BME280;3510;43.200;27.920;2023-04-06T11:18:48;100602.63;;;18.58;30.96
6942;BME280;3510;43.200;27.920;2023-04-06T11:21:15;100609.94;;;18.34;31.42
6942;BME280;3510;43.200;27.920;2023-04-06T11:23:44;100561.56;;;17.84;31.39
6942;BME280;3510;43.200;27.920;2023-04-06T11:26:12;100523.94;;;17.46;31.56
6942;BME280;3510;43.200;27.920;2023-04-06T11:28:40;100586.81;;;18.66;30.74
6942;BME280;3510;43.200;27.920;2023-04-06T11:31:09;100603.72;;;18.63;30.43
6942;BME280;3510;43.200;27.920;2023-04-06T11:33:37;100582.63;;;19.97;28.65
6942;BME280;3510;43.200;27.920;2023-04-06T11:36:05;100604.78;;;19.59;29.01
6942;BME280;3510;43.200;27.920;2023-04-06T11:38:34;100606.34;;;19.95;29.03
6942;BME280;3510;43.200;27.920;2023-04-06T11:59:57;100571.66;;;19.42;29.70
6942;BME280;3510;43.200;27.920;2023-04-06T12:02:26;100522.03;;;18.98;30.11
6942;BME280;3510;43.200;27.920;2023-04-06T12:04:57;100548.34;;;19.92;28.61
6942;BME280;3510;43.200;27.920;2023-04-06T12:07:24;100556.22;;;18.83;29.55
6942;BME280;3510;43.200;27.920;2023-04-06T12:09:52;100567.88;;;19.33;29.57
6942;BME280;3510;43.200;27.920;2023-04-06T12:12:19;100565.50;;;20.58;27.82
6942;BME280;3510;43.200;27.920;2023-04-06T12:14:46;100581.31;;;20.28;28.08
6942;BME280;3510;43.200;27.920;2023-04-06T12:17:31;100576.34;;;18.95;30.16
6942;BME280;3510;43.200;27.920;2023-04-06T12:19:59;100561.16;;;18.98;29.79
6942;BME280;3510;43.200;27.920;2023-04-06T12:22:26;100568.63;;;18.76;30.80
6942;BME280;3510;43.200;27.920;2023-04-06T12:24:53;100566.66;;;18.70;30.40
6942;BME280;3510;43.200;27.920;2023-04-06T12:27:34;100577.78;;;19.08;30.13
6942;BME280;3510;43.200;27.920;2023-04-06T12:30:01;100521.81;;;19.50;29.49
6942;BME280;3510;43.200;27.920;2023-04-06T12:35:03;100497.84;;;19.07;29.21
6942;BME280;3510;43.200;27.920;2023-04-06T12:37:31;100536.63;;;19.00;29.00
6942;BME280;3510;43.200;27.920;2023-04-06T12:39:58;100547.94;;;18.70;29.58
6942;BME280;3510;43.200;27.920;2023-04-06T12:42:26;100573.63;;;19.47;29.17
6942;BME280;3510;43.200;27.920;2023-04-06T12:44:53;100561.03;;;19.91;28.79
6942;BME280;3510;43.200;27.920;2023-04-06T12:52:40;100582.38;;;19.72;29.53
6942;BME280;3510;43.200;27.920;2023-04-06T12:55:09;100587.56;;;19.73;29.00
6942;BME280;3510;43.200;27.920;2023-04-06T12:57:50;100578.88;;;19.70;29.29
6942;BME280;3510;43.200;27.920;2023-04-06T13:00:18;100519.22;;;18.38;30.76
6942;BME280;3510;43.200;27.920;2023-04-06T13:02:45;100531.09;;;17.85;30.91
6942;BME280;3510;43.200;27.920;2023-04-06T13:05:13;100549.66;;;18.35;30.91
6942;BME280;3510;43.200;27.920;2023-04-06T13:07:45;100529.91;;;17.79;31.36
6942;BME280;3510;43.200;27.920;2023-04-06T13:10:13;100592.84;;;18.50;30.60
6942;BME280;3510;43.200;27.920;2023-04-06T13:12:40;100525.09;;;18.19;30.76
6942;BME280;3510;43.200;27.920;2023-04-06T13:15:10;100527.19;;;17.92;31.03
6942;BME280;3510;43.200;27.920;2023-04-06T13:17:37;100568.16;;;18.49;30.73
6942;BME280;3510;43.200;27.920;2023-04-06T13:20:04;100532.53;;;18.68;30.31
6942;BME280;3510;43.200;27.920;2023-04-06T13:22:32;100544.63;;;19.08;29.81
6942;BME280;3510;43.200;27.920;2023-04-06T13:25:04;100545.63;;;19.12;29.99
6942;BME280;3510;43.200;27.920;2023-04-06T13:27:34;100529.13;;;19.42;29.38
6942;BME280;3510;43.200;27.920;2023-04-06T13:30:03;100566.84;;;19.67;29.25
6942;BME280;3510;43.200;27.920;2023-04-06T13:35:07;100565.53;;;19.19;30.13
6942;BME280;3510;43.200;27.920;2023-04-06T13:37:48;100563.75;;;19.36;29.45
6942;BME280;3510;43.200;27.920;2023-04-06T13:40:18;100534.41;;;19.08;29.48
6942;BME280;3510;43.200;27.920;2023-04-06T13:42:46;100564.13;;;19.83;29.19
6942;BME280;3510;43.200;27.920;2023-04-06T13:45:18;100566.91;;;20.09;28.31
6942;BME280;3510;43.200;27.920;2023-04-06T13:47:45;100562.22;;;20.60;28.14
6942;BME280;3510;43.200;27.920;2023-04-06T13:50:25;100523.69;;;20.14;28.36
6942;BME280;3510;43.200;27.920;2023-04-06T13:52:58;100573.00;;;21.65;28.05
6942;BME280;3510;43.200;27.920;2023-04-06T13:55:34;100561.66;;;21.35;32.11
6942;BME280;3510;43.200;27.920;2023-04-06T13:58:01;100569.22;;;22.04;32.27
6942;BME280;3510;43.200;27.920;2023-04-06T14:00:30;100426.59;;;19.72;35.01
6942;BME280;3510;43.200;27.920;2023-04-06T14:03:11;100435.56;;;19.83;35.70
6942;BME280;3510;43.200;27.920;2023-04-06T14:10:53;100570.78;;;19.80;38.27
6942;BME280;3510;43.200;27.920;2023-04-06T14:13:21;100500.50;;;19.49;38.35
6942;BME280;3510;43.200;27.920;2023-04-06T14:15:59;100557.78;;;19.54;38.74
6942;BME280;3510;43.200;27.920;2023-04-06T14:18:31;100461.53;;;19.32;38.51
6942;BME280;3510;43.200;27.920;2023-04-06T14:21:12;100565.03;;;19.84;38.56
6942;BME280;3510;43.200;27.920;2023-04-06T14:23:40;100459.41;;;18.48;39.79
6942;BME280;3510;43.200;27.920;2023-04-06T14:26:10;100542.50;;;19.56;39.07
6942;BME280;3510;43.200;27.920;2023-04-06T14:31:14;100515.91;;;19.12;39.17
6942;BME280;3510;43.200;27.920;2023-04-06T14:33:41;100541.59;;;19.73;38.66
6942;BME280;3510;43.200;27.920;2023-04-06T14:36:10;100563.44;;;20.07;38.28
6942;BME280;3510;43.200;27.920;2023-04-06T14:38:37;100515.66;;;19.25;39.17
6942;BME280;3510;43.200;27.920;2023-04-06T14:41:04;100520.25;;;19.53;38.56
6942;BME280;3510;43.200;27.920;2023-04-06T14:43:32;100545.72;;;18.24;41.25
6942;BME280;3510;43.200;27.920;2023-04-06T14:46:01;100554.66;;;18.85;40.57
6942;BME280;3510;43.200;27.920;2023-04-06T14:48:29;100566.06;;;19.31;39.86
6942;BME280;3510;43.200;27.920;2023-04-06T14:50:56;100545.94;;;18.46;41.27
6942;BME280;3510;43.200;27.920;2023-04-06T14:53:26;100569.28;;;19.46;39.43
6942;BME280;3510;43.200;27.920;2023-04-06T14:56:00;100540.28;;;19.25;39.53
6942;BME280;3510;43.200;27.920;2023-04-06T14:58:27;100571.84;;;18.72;40.54
6942;BME280;3510;43.200;27.920;2023-04-06T15:01:02;100511.13;;;17.60;42.06
6942;BME280;3510;43.200;27.920;2023-04-06T15:03:43;100562.13;;;19.00;40.43
6942;BME280;3510;43.200;27.920;2023-04-06T15:06:12;100566.84;;;19.67;39.44
6942;BME280;3510;43.200;27.920;2023-04-06T15:08:41;100569.63;;;18.97;40.08
6942;BME280;3510;43.200;27.920;2023-04-06T15:11:09;100569.44;;;19.30;39.16
6942;BME280;3510;43.200;27.920;2023-04-06T15:16:22;100583.41;;;17.48;43.03
6942;BME280;3510;43.200;27.920;2023-04-06T15:18:49;100449.81;;;16.43;44.02
6942;BME280;3510;43.200;27.920;2023-04-06T15:21:16;100555.88;;;18.06;42.13
6942;BME280;3510;43.200;27.920;2023-04-06T15:23:45;100589.97;;;18.26;42.18
6942;BME280;3510;43.200;27.920;2023-04-06T15:26:12;100580.84;;;16.84;45.49
6942;BME280;3510;43.200;27.920;2023-04-06T15:31:15;100572.44;;;17.98;43.09
6942;BME280;3510;43.200;27.920;2023-04-06T15:33:48;100591.94;;;18.31;42.48
6942;BME280;3510;43.200;27.920;2023-04-06T15:36:23;100596.38;;;18.70;42.08
6942;BME280;3510;43.200;27.920;2023-04-06T15:38:54;100499.59;;;18.71;41.20
6942;BME280;3510;43.200;27.920;2023-04-06T15:41:21;100467.25;;;18.52;40.92
6942;BME280;3510;43.200;27.920;2023-04-06T15:43:48;100601.09;;;19.16;41.25
6942;BME280;3510;43.200;27.920;2023-04-06T15:46:15;100603.44;;;18.75;42.02
6942;BME280;3510;43.200;27.920;2023-04-06T15:48:42;100613.75;;;18.60;42.33
6942;BME280;3510;43.200;27.920;2023-04-06T15:51:11;100597.81;;;18.65;42.17
6942;BME280;3510;43.200;27.920;2023-04-06T15:53:40;100556.00;;;18.09;42.40
6942;BME280;3510;43.200;27.920;2023-04-06T15:56:11;100621.41;;;17.61;44.70
6942;BME280;3510;43.200;27.920;2023-04-06T15:58:39;100580.56;;;17.90;42.69
6942;BME280;3510;43.200;27.920;2023-04-06T16:01:11;100629.47;;;18.52;42.31
6942;BME280;3510;43.200;27.920;2023-04-06T16:03:39;100464.00;;;16.70;43.88
6942;BME280;3510;43.200;27.920;2023-04-06T16:06:07;100622.13;;;18.24;43.04